Time;durP1;ratioP1;P1;durP2;ratioP2;P2;SDS_P1;SDS_P2;PMS_P1;PMS_P2;Temp;Humidity;BMP_temperature;BMP_pressure;BME280_temperature;BME280_humidity;BME280_pressure;Samples;Min_cycle;Max_cycle;Signal;HPM_P1;HPM_P2
2022/10/20 00:01:11;;;;;;;4.73;2.80;;;14.00;99.90;;;;;;5047864;28;20421;-73
2022/10/20 00:03:40;;;;;;;7.10;3.40;;;13.90;99.90;;;;;;5030829;28;20469;-73
2022/10/20 00:06:17;;;;;;;4.97;3.20;;;13.90;99.90;;;;;;5047403;28;20550;-73
2022/10/20 00:08:47;;;;;;;3.33;3.03;;;13.90;99.90;;;;;;5031030;28;20453;-73
2022/10/20 00:11:20;;;;;;;3.47;3.00;;;13.90;99.90;;;;;;5014563;28;21089;-73
2022/10/20 00:13:51;;;;;;;3.57;2.97;;;13.90;99.90;;;;;;5047329;28;20627;-73
2022/10/20 00:16:22;;;;;;;3.40;3.10;;;13.90;99.90;;;;;;5030889;28;20418;-73
2022/10/20 00:18:49;;;;;;;3.97;2.90;;;13.90;99.90;;;;;;5031881;28;20446;-73
2022/10/20 00:21:20;;;;;;;4.03;3.10;;;13.90;99.90;;;;;;5013807;28;21040;-73
2022/10/20 00:23:48;;;;;;;4.10;3.37;;;13.90;99.90;;;;;;5030750;28;20985;-73
2022/10/20 00:26:20;;;;;;;4.97;3.17;;;13.90;99.90;;;;;;5047256;28;20549;-73
2022/10/20 00:28:49;;;;;;;4.20;3.60;;;13.90;99.90;;;;;;5030712;28;20445;-73
2022/10/20 00:31:16;;;;;;;4.67;3.37;;;13.90;99.90;;;;;;5014607;28;20434;-73
2022/10/20 00:33:42;;;;;;;3.90;3.27;;;13.90;99.90;;;;;;5031781;28;20524;-73
2022/10/20 00:36:16;;;;;;;4.27;2.87;;;13.80;99.90;;;;;;5030389;28;20474;-73
2022/10/20 00:38:45;;;;;;;3.97;3.27;;;13.80;99.90;;;;;;5046561;28;20446;-73
2022/10/20 00:41:13;;;;;;;8.10;3.40;;;13.80;99.90;;;;;;5047569;28;20424;-73
2022/10/20 00:43:58;;;;;;;5.70;3.40;;;13.80;99.90;;;;;;5032196;28;20549;-73
2022/10/20 00:46:36;;;;;;;8.83;3.20;;;13.80;99.90;;;;;;5046997;28;20431;-73
2022/10/20 00:49:24;;;;;;;3.70;2.93;;;13.80;99.90;;;;;;5031823;28;20455;-73
2022/10/20 00:51:53;;;;;;;5.37;3.70;;;13.80;99.90;;;;;;5030628;28;20468;-73
2022/10/20 00:54:25;;;;;;;4.33;3.53;;;13.80;99.90;;;;;;5047028;28;21073;-73
2022/10/20 00:56:54;;;;;;;6.07;3.20;;;13.80;99.90;;;;;;5031923;28;20438;-73
2022/10/20 00:59:25;;;;;;;3.97;3.63;;;13.80;99.90;;;;;;5031295;28;20936;-73
2022/10/20 01:01:52;;;;;;;4.03;3.33;;;13.80;99.90;;;;;;5031698;28;20783;-73
2022/10/20 01:04:21;;;;;;;4.30;3.50;;;13.80;99.90;;;;;;5020148;28;20994;-73
2022/10/20 01:06:47;;;;;;;3.37;2.77;;;13.80;99.90;;;;;;5035129;28;20409;-73
2022/10/20 01:09:14;;;;;;;7.53;3.33;;;13.80;99.90;;;;;;5034096;28;20425;-73
2022/10/20 01:11:54;;;;;;;5.93;3.30;;;13.70;99.90;;;;;;5033911;28;20474;-73
2022/10/20 01:14:22;;;;;;;4.20;3.53;;;13.70;99.90;;;;;;5050552;28;20433;-73
2022/10/20 01:17:22;;;;;;;5.57;3.20;;;13.70;99.90;;;;;;5050507;28;20971;-73
2022/10/20 01:19:57;;;;;;;4.50;3.47;;;13.70;99.90;;;;;;5050715;28;20193;-73
2022/10/20 01:22:33;;;;;;;6.03;3.30;;;13.70;99.90;;;;;;5034097;28;20918;-73
2022/10/20 01:25:23;;;;;;;4.27;3.87;;;13.70;99.90;;;;;;5034074;28;20991;-73
2022/10/20 01:28:05;;;;;;;4.00;3.20;;;13.70;99.90;;;;;;5050241;28;20455;-73
2022/10/20 01:30:38;;;;;;;3.30;3.00;;;13.70;99.90;;;;;;5050414;28;20466;-73
2022/10/20 01:33:45;;;;;;;4.53;3.50;;;13.70;99.90;;;;;;5017680;28;20808;-73
2022/10/20 01:36:19;;;;;;;3.70;3.13;;;13.70;99.90;;;;;;5050509;28;20520;-73
2022/10/20 01:38:55;;;;;;;3.70;3.23;;;13.70;99.90;;;;;;5033923;28;20522;-73
2022/10/20 01:41:37;;;;;;;4.60;3.87;;;13.60;99.90;;;;;;5034735;28;20958;-73
2022/10/20 01:44:09;;;;;;;4.00;3.57;;;13.60;99.90;;;;;;5050231;28;20845;-73
2022/10/20 01:46:44;;;;;;;4.27;3.10;;;13.60;99.90;;;;;;5050117;28;20512;-73
2022/10/20 01:49:13;;;;;;;3.53;3.07;;;13.60;99.90;;;;;;5050015;28;20929;-73
2022/10/20 01:51:42;;;;;;;3.67;3.27;;;13.60;99.90;;;;;;5034895;28;20413;-73
2022/10/20 01:54:23;;;;;;;4.07;3.67;;;13.60;99.90;;;;;;5033745;28;20404;-73
2022/10/20 01:57:43;;;;;;;4.80;3.23;;;13.60;99.90;;;;;;5066989;28;20464;-73
2022/10/20 02:00:12;;;;;;;4.87;3.30;;;13.60;99.90;;;;;;4975951;28;20463;-73
2022/10/20 02:03:18;;;;;;;4.10;2.97;;;13.60;99.90;;;;;;5022040;28;20453;-73
2022/10/20 02:05:59;;;;;;;3.67;2.90;;;13.50;99.90;;;;;;5032927;28;21005;-73
2022/10/20 02:08:49;;;;;;;4.30;3.03;;;13.60;99.90;;;;;;5049731;28;20449;-73
2022/10/20 02:11:39;;;;;;;5.07;3.33;;;13.50;99.90;;;;;;5034326;28;20511;-73
2022/10/20 02:14:08;;;;;;;5.83;3.60;;;13.50;99.90;;;;;;5031846;28;20501;-73
2022/10/20 02:16:44;;;;;;;5.00;3.90;;;13.50;99.90;;;;;;5049640;28;20468;-73
2022/10/20 02:19:12;;;;;;;4.70;3.43;;;13.50;99.90;;;;;;5033762;28;20843;-73
2022/10/20 02:21:43;;;;;;;5.27;3.60;;;13.50;99.90;;;;;;5049315;28;20449;-73
2022/10/20 02:24:14;;;;;;;5.83;4.33;;;13.50;99.90;;;;;;5034127;28;20497;-73
2022/10/20 02:26:43;;;;;;;4.40;3.10;;;13.50;99.90;;;;;;5049275;28;20434;-73
2022/10/20 02:29:19;;;;;;;4.90;3.40;;;13.50;99.90;;;;;;5049548;28;20423;-73
2022/10/20 02:31:48;;;;;;;4.97;3.77;;;13.50;99.90;;;;;;5049861;28;20411;-73
2022/10/20 02:34:16;;;;;;;4.87;3.07;;;13.50;99.90;;;;;;5049369;28;20952;-73
2022/10/20 02:36:45;;;;;;;3.80;3.40;;;13.50;99.90;;;;;;5033968;28;20420;-73
2022/10/20 02:39:13;;;;;;;4.57;3.80;;;13.40;99.90;;;;;;5032794;28;20505;-73
2022/10/20 02:41:44;;;;;;;4.10;3.17;;;13.50;99.90;;;;;;5032741;28;20568;-72
2022/10/20 02:44:10;;;;;;;6.90;3.93;;;13.40;99.90;;;;;;5049115;28;20423;-73
2022/10/20 02:46:36;;;;;;;4.40;3.50;;;13.50;99.90;;;;;;5032196;28;20424;-73
2022/10/20 02:49:02;;;;;;;4.77;3.60;;;13.40;99.90;;;;;;5030166;28;20440;-73
2022/10/20 02:51:30;;;;;;;4.73;3.50;;;13.40;99.90;;;;;;5033603;28;20812;-73
2022/10/20 02:53:56;;;;;;;4.77;3.70;;;13.40;99.90;;;;;;5033290;28;20417;-73
2022/10/20 02:56:22;;;;;;;4.20;3.80;;;13.40;99.90;;;;;;5033295;28;20424;-73
2022/10/20 02:58:52;;;;;;;4.33;3.50;;;13.40;99.90;;;;;;5033497;28;20280;-73
2022/10/20 03:01:18;;;;;;;3.90;3.40;;;13.40;99.90;;;;;;5024332;28;20475;-73
2022/10/20 03:03:46;;;;;;;4.97;3.70;;;13.40;99.90;;;;;;5045437;28;20960;-73
2022/10/20 03:06:14;;;;;;;3.87;3.53;;;13.40;99.90;;;;;;5032123;28;20793;-73
2022/10/20 03:08:42;;;;;;;5.37;3.50;;;13.50;99.90;;;;;;5031433;28;20442;-73
2022/10/20 03:11:08;;;;;;;4.23;3.80;;;13.40;99.90;;;;;;5032201;28;20453;-73
2022/10/20 03:13:34;;;;;;;3.97;3.40;;;13.40;99.90;;;;;;5048357;28;20491;-73
2022/10/20 03:16:03;;;;;;;4.07;3.57;;;13.40;99.90;;;;;;5048188;28;20852;-73
2022/10/20 03:18:31;;;;;;;4.50;3.70;;;13.40;99.90;;;;;;5032912;28;21084;-73
2022/10/20 03:20:57;;;;;;;4.00;3.60;;;13.40;99.90;;;;;;5048080;28;20473;-73
2022/10/20 03:23:25;;;;;;;3.83;3.43;;;13.40;99.90;;;;;;5031773;28;20435;-72
2022/10/20 03:25:51;;;;;;;4.90;4.40;;;13.40;99.90;;;;;;5047274;28;20546;-73
2022/10/20 03:28:24;;;;;;;4.77;3.90;;;13.40;99.90;;;;;;5047801;28;20721;-72
2022/10/20 03:30:50;;;;;;;4.77;3.90;;;13.40;99.90;;;;;;5047479;28;20454;-74
2022/10/20 03:33:38;;;;;;;5.47;4.00;;;13.40;99.90;;;;;;4996294;28;20710;-73
2022/10/20 03:36:18;;;;;;;4.67;3.93;;;13.40;99.90;;;;;;5022098;28;20419;-78
2022/10/20 03:38:44;;;;;;;4.77;3.80;;;13.40;99.90;;;;;;4998810;28;20971;-72
2022/10/20 03:41:10;;;;;;;4.47;4.07;;;13.40;99.90;;;;;;5030185;28;20476;-73
2022/10/20 03:43:43;;;;;;;4.50;3.70;;;13.40;99.90;;;;;;5036838;28;20446;-73
2022/10/20 03:46:11;;;;;;;4.40;3.90;;;13.40;99.90;;;;;;5030251;28;20571;-73
2022/10/20 03:48:40;;;;;;;6.20;4.27;;;13.40;99.90;;;;;;5014613;28;20449;-73
2022/10/20 03:51:12;;;;;;;4.70;3.50;;;13.40;99.90;;;;;;5032400;28;20420;-72
2022/10/20 03:53:38;;;;;;;4.20;3.80;;;13.40;99.90;;;;;;5030974;28;20819;-73
2022/10/20 03:56:09;;;;;;;7.17;4.00;;;13.40;99.90;;;;;;5047683;28;20410;-72
2022/10/20 03:58:35;;;;;;;4.60;4.20;;;13.40;99.90;;;;;;5031073;28;20808;-72
2022/10/20 04:01:01;;;;;;;5.40;4.07;;;13.40;99.90;;;;;;5032409;28;20435;-72
2022/10/20 04:03:32;;;;;;;4.10;3.47;;;13.40;99.90;;;;;;5047325;28;20504;-72
2022/10/20 04:06:00;;;;;;;6.43;4.40;;;13.40;99.90;;;;;;5030996;28;20467;-72
2022/10/20 04:08:28;;;;;;;6.20;3.90;;;13.40;99.90;;;;;;5031241;28;20453;-72
2022/10/20 04:10:54;;;;;;;6.37;4.20;;;13.40;99.90;;;;;;5047715;28;20566;-72
2022/10/20 04:13:46;;;;;;;5.57;3.90;;;13.40;99.90;;;;;;5016213;28;20420;-72
2022/10/20 04:16:15;;;;;;;4.77;4.27;;;13.40;99.90;;;;;;5047793;28;20447;-72
2022/10/20 04:18:41;;;;;;;6.17;3.50;;;13.40;99.90;;;;;;5030744;28;20474;-72
2022/10/20 04:21:09;;;;;;;5.20;3.97;;;13.40;99.90;;;;;;5030827;28;20433;-72
2022/10/20 04:23:40;;;;;;;4.10;3.70;;;13.40;99.90;;;;;;5031930;28;20453;-72
2022/10/20 04:26:10;;;;;;;4.90;4.23;;;13.40;99.90;;;;;;5031926;28;20454;-72
2022/10/20 04:28:37;;;;;;;5.43;3.97;;;13.40;99.90;;;;;;5014522;28;20540;-72
2022/10/20 04:31:04;;;;;;;8.83;4.60;;;13.40;99.90;;;;;;5024626;28;20521;-72
2022/10/20 04:33:33;;;;;;;6.23;4.13;;;13.40;99.90;;;;;;5010431;28;20437;-72
2022/10/20 04:36:07;;;;;;;4.90;3.83;;;13.40;99.90;;;;;;5046763;28;20524;-72
2022/10/20 04:38:34;;;;;;;4.20;3.80;;;13.40;99.90;;;;;;5050990;28;20447;-72
2022/10/20 04:41:05;;;;;;;5.03;3.70;;;13.40;99.90;;;;;;5045731;28;20432;-72
2022/10/20 04:43:33;;;;;;;4.50;4.00;;;13.40;99.90;;;;;;5016998;28;20431;-72
2022/10/20 04:46:05;;;;;;;4.40;4.00;;;13.40;99.90;;;;;;5034442;28;20530;-71
2022/10/20 04:48:30;;;;;;;5.13;4.47;;;13.40;99.90;;;;;;5051248;28;20977;-72
2022/10/20 04:51:02;;;;;;;4.80;4.30;;;13.40;99.90;;;;;;5034563;28;20433;-72
2022/10/20 04:53:28;;;;;;;6.70;4.20;;;13.40;99.90;;;;;;5035029;28;20439;-72
2022/10/20 04:55:57;;;;;;;6.30;4.63;;;13.40;99.90;;;;;;5051024;28;20429;-72
2022/10/20 04:58:24;;;;;;;6.57;3.87;;;13.40;99.90;;;;;;5050860;28;20475;-72
2022/10/20 05:00:50;;;;;;;4.40;4.00;;;13.40;99.90;;;;;;5017434;28;20434;-72
2022/10/20 05:03:17;;;;;;;4.70;3.90;;;13.30;99.90;;;;;;5050649;28;20502;-73
2022/10/20 05:05:48;;;;;;;6.70;4.60;;;13.30;99.90;;;;;;5035316;28;20472;-73
2022/10/20 05:08:14;;;;;;;4.97;4.13;;;13.30;99.90;;;;;;5042447;28;21009;-74
2022/10/20 05:10:40;;;;;;;4.07;3.67;;;13.40;99.90;;;;;;5034237;28;20475;-73
2022/10/20 05:13:07;;;;;;;4.63;4.07;;;13.30;99.90;;;;;;5034099;28;20426;-73
2022/10/20 05:15:33;;;;;;;5.50;3.63;;;13.40;99.90;;;;;;5050696;28;20433;-73
2022/10/20 05:17:59;;;;;;;4.73;4.30;;;13.40;99.90;;;;;;5050765;28;20824;-73
2022/10/20 05:20:25;;;;;;;7.33;4.50;;;13.40;99.90;;;;;;5034936;28;20544;-73
2022/10/20 05:22:53;;;;;;;5.10;4.43;;;13.40;99.90;;;;;;5034856;28;20437;-72
2022/10/20 05:25:19;;;;;;;7.30;4.37;;;13.40;99.90;;;;;;5049306;28;20468;-73
2022/10/20 05:27:45;;;;;;;7.20;4.43;;;13.40;99.90;;;;;;5017233;28;20448;-73
2022/10/20 05:30:11;;;;;;;6.83;5.40;;;13.40;99.90;;;;;;5015988;28;20456;-73
2022/10/20 05:32:37;;;;;;;6.33;4.40;;;13.40;99.90;;;;;;5049922;28;20180;-73
2022/10/20 05:35:03;;;;;;;5.20;3.97;;;13.40;99.90;;;;;;5033494;28;20421;-72
2022/10/20 05:37:31;;;;;;;6.13;4.13;;;13.40;99.90;;;;;;5050146;28;20211;-73
2022/10/20 05:39:58;;;;;;;5.40;4.40;;;13.40;99.90;;;;;;5032997;28;20460;-73
2022/10/20 05:42:26;;;;;;;4.47;4.07;;;13.40;99.90;;;;;;5049268;28;20416;-73
2022/10/20 05:44:55;;;;;;;6.63;4.50;;;13.40;99.90;;;;;;5033838;28;20825;-73
2022/10/20 05:47:21;;;;;;;4.27;3.90;;;13.40;99.90;;;;;;5033034;28;20453;-73
2022/10/20 05:49:50;;;;;;;8.53;3.67;;;13.40;99.90;;;;;;5032587;28;20805;-74
2022/10/20 05:52:18;;;;;;;4.60;4.10;;;13.40;99.90;;;;;;5015894;28;20446;-74
2022/10/20 05:54:47;;;;;;;4.53;4.10;;;13.40;99.90;;;;;;5016409;28;20417;-74
2022/10/20 05:57:13;;;;;;;5.57;4.30;;;13.40;99.90;;;;;;5048211;28;20441;-73
2022/10/20 05:59:39;;;;;;;5.20;4.50;;;13.40;99.90;;;;;;5031593;28;20941;-74
2022/10/20 06:02:05;;;;;;;5.83;5.00;;;13.40;99.90;;;;;;5016897;28;20626;-74
2022/10/20 06:04:37;;;;;;;5.07;4.40;;;13.40;99.90;;;;;;5048367;28;20466;-74
2022/10/20 06:07:13;;;;;;;4.90;4.00;;;13.40;99.90;;;;;;5032780;28;20449;-73
2022/10/20 06:09:39;;;;;;;5.20;4.10;;;13.40;99.90;;;;;;5015773;28;20455;-73
2022/10/20 06:12:08;;;;;;;5.17;4.30;;;13.40;99.90;;;;;;5047906;28;20534;-74
2022/10/20 06:14:36;;;;;;;5.30;4.53;;;13.40;99.90;;;;;;5032807;28;20508;-74
2022/10/20 06:17:02;;;;;;;4.73;4.27;;;13.40;99.90;;;;;;5048750;28;20478;-74
2022/10/20 06:19:28;;;;;;;4.90;4.40;;;13.40;99.90;;;;;;5030631;28;20431;-74
2022/10/20 06:21:56;;;;;;;5.43;4.47;;;13.40;99.90;;;;;;5031306;28;20945;-74
2022/10/20 06:24:22;;;;;;;4.77;4.30;;;13.40;99.90;;;;;;5031259;28;20495;-74
2022/10/20 06:26:50;;;;;;;4.10;3.70;;;13.40;99.90;;;;;;5029127;28;20455;-70
2022/10/20 06:29:18;;;;;;;7.37;4.93;;;13.40;99.90;;;;;;5030673;28;20504;-73
2022/10/20 06:31:46;;;;;;;4.70;4.20;;;13.40;99.90;;;;;;5031424;28;20934;-73
2022/10/20 06:34:21;;;;;;;6.60;4.73;;;13.40;99.90;;;;;;5020832;28;20938;-73
2022/10/20 06:36:48;;;;;;;6.10;4.57;;;13.40;99.90;;;;;;5047099;28;20871;-73
2022/10/20 06:39:20;;;;;;;10.97;5.20;;;13.40;99.90;;;;;;5014009;28;20494;-73
2022/10/20 06:41:53;;;;;;;6.10;4.57;;;13.40;99.90;;;;;;5030866;28;20581;-73
2022/10/20 06:44:23;;;;;;;8.33;4.80;;;13.40;99.90;;;;;;5032510;28;20449;-73
2022/10/20 06:46:51;;;;;;;7.13;4.90;;;13.40;99.90;;;;;;5020573;28;20462;-73
2022/10/20 06:49:19;;;;;;;8.20;4.60;;;13.40;99.90;;;;;;5032107;28;20406;-73
2022/10/20 06:51:46;;;;;;;7.63;5.20;;;13.40;99.90;;;;;;5033241;28;20414;-73
2022/10/20 06:54:14;;;;;;;6.10;4.60;;;13.40;99.90;;;;;;5015905;28;20452;-73
2022/10/20 06:56:40;;;;;;;6.23;5.00;;;13.40;99.90;;;;;;5123098;22;20440;-71
2022/10/20 06:59:06;;;;;;;8.33;4.70;;;13.40;99.90;;;;;;5024019;28;20545;-72
2022/10/20 07:01:37;;;;;;;5.97;4.70;;;13.40;99.90;;;;;;5013649;28;20954;-71
2022/10/20 07:04:13;;;;;;;5.30;4.77;;;13.40;99.90;;;;;;5012664;28;20452;-73
2022/10/20 07:06:41;;;;;;;7.73;4.60;;;13.40;99.90;;;;;;4994272;28;20446;-73
2022/10/20 07:09:12;;;;;;;5.67;4.70;;;13.40;99.90;;;;;;5020626;28;20457;-73
2022/10/20 07:11:40;;;;;;;5.53;4.87;;;13.40;99.90;;;;;;5014719;28;20528;-72
2022/10/20 07:14:06;;;;;;;5.50;4.90;;;13.40;99.90;;;;;;4996660;28;20455;-73
2022/10/20 07:16:33;;;;;;;7.87;4.50;;;13.40;99.90;;;;;;4996962;28;20461;-71
2022/10/20 07:19:00;;;;;;;6.37;5.10;;;13.50;99.90;;;;;;5013373;28;20458;-72
2022/10/20 07:21:30;;;;;;;6.20;5.50;;;13.50;99.90;;;;;;5013097;28;20451;-72
2022/10/20 07:23:56;;;;;;;9.23;5.33;;;13.50;99.90;;;;;;5031016;28;20609;-72
2022/10/20 07:26:24;;;;;;;5.73;4.70;;;13.50;99.90;;;;;;4998226;28;20824;-72
2022/10/20 07:28:57;;;;;;;6.67;4.97;;;13.50;99.90;;;;;;4996639;28;20605;-73
2022/10/20 07:31:34;;;;;;;6.70;5.63;;;13.50;99.90;;;;;;5013734;28;20456;-74
2022/10/20 07:34:35;;;;;;;7.70;6.33;;;13.50;99.90;;;;;;5007287;28;20476;-74
2022/10/20 07:37:04;;;;;;;7.20;4.97;;;13.50;99.90;;;;;;4995991;28;20980;-74
2022/10/20 07:39:32;;;;;;;8.13;5.37;;;13.50;99.90;;;;;;5030187;28;20563;-74
2022/10/20 07:42:00;;;;;;;5.57;4.97;;;13.50;99.90;;;;;;4996252;28;20434;-74
2022/10/20 07:44:29;;;;;;;6.90;4.90;;;13.50;99.90;;;;;;4998385;28;21076;-73
2022/10/20 07:46:57;;;;;;;8.83;5.67;;;13.50;99.90;;;;;;4997596;28;20450;-73
2022/10/20 07:49:28;;;;;;;5.33;4.83;;;13.50;99.90;;;;;;5014059;28;20423;-73
2022/10/20 07:51:59;;;;;;;6.30;5.57;;;13.50;99.90;;;;;;5031387;28;20578;-73
2022/10/20 07:54:28;;;;;;;5.70;5.07;;;13.50;99.90;;;;;;5031361;28;20442;-73
2022/10/20 07:56:54;;;;;;;5.97;5.10;;;13.50;99.90;;;;;;5013582;28;20444;-73
2022/10/20 07:59:24;;;;;;;6.97;4.90;;;13.50;99.90;;;;;;4997489;28;20493;-73
2022/10/20 08:01:53;;;;;;;5.90;5.20;;;13.50;99.90;;;;;;5030803;28;20525;-73
2022/10/20 08:04:21;;;;;;;5.70;5.20;;;13.60;99.90;;;;;;5013599;28;20440;-73
2022/10/20 08:06:49;;;;;;;6.40;5.17;;;13.60;99.90;;;;;;5014120;28;20423;-72
2022/10/20 08:09:20;;;;;;;8.20;5.77;;;13.60;99.90;;;;;;4997312;28;20928;-73
2022/10/20 08:11:48;;;;;;;6.20;5.37;;;13.60;99.90;;;;;;5013914;28;20436;-73
2022/10/20 08:14:14;;;;;;;7.63;6.20;;;13.60;99.90;;;;;;4997774;28;20971;-73
2022/10/20 08:16:40;;;;;;;7.90;5.50;;;13.60;99.90;;;;;;5013877;28;20422;-73
2022/10/20 08:19:06;;;;;;;6.90;5.00;;;13.60;99.90;;;;;;4997694;28;20913;-73
2022/10/20 08:21:35;;;;;;;6.60;5.70;;;13.60;99.90;;;;;;5031338;28;20937;-73
2022/10/20 08:24:03;;;;;;;7.83;5.37;;;13.60;99.90;;;;;;5014365;28;21004;-75
2022/10/20 08:26:41;;;;;;;10.10;5.93;;;13.60;99.90;;;;;;5014501;28;20543;-73
2022/10/20 08:29:14;;;;;;;10.70;6.03;;;13.60;99.90;;;;;;4977961;28;20493;-70
2022/10/20 08:31:44;;;;;;;6.70;5.27;;;13.60;99.90;;;;;;4979527;28;20495;-73
2022/10/20 08:34:11;;;;;;;8.70;5.60;;;13.60;99.90;;;;;;5012849;28;20942;-72
2022/10/20 08:36:53;;;;;;;6.40;5.20;;;13.70;99.90;;;;;;5017757;28;20522;-73
2022/10/20 08:39:21;;;;;;;9.00;5.93;;;13.70;99.90;;;;;;5031203;28;20449;-73
2022/10/20 08:41:49;;;;;;;5.73;5.13;;;13.70;99.90;;;;;;4974540;28;20439;-73
2022/10/20 08:44:24;;;;;;;8.77;6.03;;;13.70;99.90;;;;;;4995979;28;20441;-72
2022/10/20 08:46:51;;;;;;;8.57;5.67;;;13.70;99.90;;;;;;5005868;28;20479;-72
2022/10/20 08:49:27;;;;;;;5.57;4.80;;;13.70;99.90;;;;;;4994585;28;20521;-72
2022/10/20 08:51:54;;;;;;;6.10;5.00;;;13.70;99.90;;;;;;4990813;28;20453;-72
2022/10/20 08:54:20;;;;;;;7.73;6.37;;;13.70;99.90;;;;;;5030434;28;20452;-71
2022/10/20 08:56:46;;;;;;;7.90;5.30;;;13.70;99.90;;;;;;5030674;28;20425;-71
2022/10/20 08:59:43;;;;;;;6.40;5.50;;;13.70;99.90;;;;;;5014346;28;20443;-72
2022/10/20 09:02:17;;;;;;;7.00;5.77;;;13.70;99.90;;;;;;5011530;28;20489;-72
2022/10/20 09:04:48;;;;;;;7.43;5.50;;;13.70;99.90;;;;;;5014078;28;20480;-72
2022/10/20 09:07:32;;;;;;;6.03;5.40;;;13.70;99.90;;;;;;5014195;28;20475;-72
2022/10/20 09:10:23;;;;;;;5.70;5.10;;;13.80;99.90;;;;;;5032174;28;20423;-72
2022/10/20 09:12:51;;;;;;;5.80;5.20;;;13.80;99.90;;;;;;4994417;28;20400;-72
2022/10/20 09:15:19;;;;;;;6.60;5.27;;;13.80;99.90;;;;;;5020131;28;20418;-72
2022/10/20 09:17:49;;;;;;;10.30;6.00;;;13.80;99.90;;;;;;4997284;28;20538;-72
2022/10/20 09:20:40;;;;;;;9.57;5.97;;;13.80;99.90;;;;;;5014043;28;20433;-72
2022/10/20 09:23:16;;;;;;;7.20;5.50;;;13.80;99.90;;;;;;4998972;28;20521;-72
2022/10/20 09:25:50;;;;;;;6.90;5.60;;;13.80;99.90;;;;;;5001320;28;20494;-71
2022/10/20 09:28:25;;;;;;;8.67;6.80;;;13.80;99.90;;;;;;4984947;28;20446;-72
2022/10/20 09:30:55;;;;;;;6.10;5.43;;;13.80;99.90;;;;;;5016899;28;20456;-72
2022/10/20 09:33:33;;;;;;;6.60;5.90;;;13.80;99.90;;;;;;5017633;28;20444;-72
2022/10/20 09:36:02;;;;;;;6.47;5.40;;;13.90;99.90;;;;;;5016754;28;20479;-72
2022/10/20 09:38:34;;;;;;;13.10;5.47;;;13.90;99.90;;;;;;5017542;28;20862;-72
2022/10/20 09:41:18;;;;;;;9.13;6.00;;;13.90;99.90;;;;;;5016890;28;20964;-72
2022/10/20 09:43:57;;;;;;;8.50;5.90;;;13.90;99.90;;;;;;5000837;28;20455;-71
2022/10/20 09:46:31;;;;;;;6.90;5.60;;;13.90;99.90;;;;;;5016040;28;20474;-72
2022/10/20 09:49:00;;;;;;;7.40;6.60;;;13.90;99.90;;;;;;5012217;28;20430;-72
2022/10/20 09:51:31;;;;;;;9.80;6.27;;;13.90;99.90;;;;;;5033780;28;20459;-75
2022/10/20 09:54:13;;;;;;;7.57;6.00;;;13.90;99.90;;;;;;5033181;28;21013;-72
2022/10/20 09:56:45;;;;;;;7.50;5.83;;;13.90;99.90;;;;;;4999558;28;20486;-72
2022/10/20 09:59:22;;;;;;;6.90;5.70;;;13.90;99.90;;;;;;5016090;28;20850;-72
2022/10/20 10:02:03;;;;;;;9.27;5.77;;;13.90;99.90;;;;;;5019774;28;20445;-72
2022/10/20 10:04:38;;;;;;;8.90;5.70;;;13.90;99.90;;;;;;5016133;28;20439;-72
2022/10/20 10:07:27;;;;;;;6.03;5.43;;;13.90;99.90;;;;;;5015923;28;20457;-72
2022/10/20 10:10:06;;;;;;;5.80;5.20;;;13.90;99.90;;;;;;5016119;28;20454;-72
2022/10/20 10:12:34;;;;;;;7.13;6.20;;;13.90;99.90;;;;;;5033132;28;20480;-72
2022/10/20 10:15:10;;;;;;;6.90;5.57;;;14.00;99.90;;;;;;4999981;28;20430;-72
2022/10/20 10:17:41;;;;;;;7.03;6.43;;;13.90;99.90;;;;;;4982906;28;20485;-72
2022/10/20 10:20:11;;;;;;;14.53;5.83;;;14.00;99.90;;;;;;4999006;28;20477;-72
2022/10/20 10:22:43;;;;;;;7.07;6.20;;;14.00;99.90;;;;;;5016292;28;20530;-72
2022/10/20 10:25:16;;;;;;;12.50;6.13;;;14.00;99.90;;;;;;5015616;28;20461;-72
2022/10/20 10:27:59;;;;;;;7.77;5.77;;;14.00;99.90;;;;;;4999479;28;20454;-72
2022/10/20 10:30:29;;;;;;;9.80;6.00;;;14.00;99.90;;;;;;5018289;28;20970;-72
2022/10/20 10:32:58;;;;;;;7.40;6.60;;;14.00;99.90;;;;;;4999154;28;20526;-72
2022/10/20 10:35:35;;;;;;;5.73;5.13;;;14.00;99.90;;;;;;5031898;28;20561;-72
2022/10/20 10:38:01;;;;;;;8.30;5.97;;;14.00;99.90;;;;;;5028690;28;20462;-72
2022/10/20 10:41:00;;;;;;;9.13;6.30;;;14.10;99.90;;;;;;4964720;28;20582;-72
2022/10/20 10:43:59;;;;;;;8.63;6.70;;;14.10;99.90;;;;;;5012010;28;20534;-72
2022/10/20 10:46:26;;;;;;;6.57;5.90;;;14.10;99.90;;;;;;5030210;28;20480;-72
2022/10/20 10:49:45;;;;;;;7.47;5.37;;;14.10;99.90;;;;;;4960480;28;21006;-72
2022/10/20 10:52:29;;;;;;;7.27;5.50;;;14.10;99.90;;;;;;4940292;28;20916;-73
2022/10/20 10:55:01;;;;;;;7.43;5.80;;;14.10;99.90;;;;;;4948445;28;20461;-73
2022/10/20 10:57:51;;;;;;;8.10;6.20;;;14.10;99.90;;;;;;4923738;28;21103;-74
2022/10/20 11:00:36;;;;;;;7.70;6.90;;;14.10;99.90;;;;;;4939308;28;20438;-72
2022/10/20 11:03:38;;;;;;;10.80;5.70;;;14.10;99.90;;;;;;4948032;28;20516;-72
2022/10/20 11:06:16;;;;;;;6.43;5.80;;;14.10;99.90;;;;;;4955415;28;20478;-74
2022/10/20 11:09:01;;;;;;;8.30;5.73;;;14.10;99.90;;;;;;4952367;28;20475;-73
2022/10/20 11:11:57;;;;;;;8.07;6.57;;;14.10;99.90;;;;;;4944267;28;20444;-73
2022/10/20 11:15:01;;;;;;;7.57;6.77;;;14.10;99.90;;;;;;4954359;28;20461;-72
2022/10/20 11:17:39;;;;;;;7.37;5.93;;;14.20;99.90;;;;;;4963340;28;20538;-71
2022/10/20 11:20:17;;;;;;;9.77;5.80;;;14.20;99.90;;;;;;5009416;28;20411;-72
2022/10/20 11:23:11;;;;;;;8.10;6.03;;;14.20;99.90;;;;;;4998424;28;20449;-72
2022/10/20 11:25:44;;;;;;;6.03;5.30;;;14.20;99.90;;;;;;5015021;28;20485;-79
2022/10/20 11:28:36;;;;;;;8.17;6.53;;;14.20;99.90;;;;;;5014642;28;20808;-72
2022/10/20 11:31:03;;;;;;;7.73;5.50;;;14.20;99.90;;;;;;4995514;28;20448;-74
2022/10/20 11:33:42;;;;;;;7.40;6.03;;;14.20;99.90;;;;;;4998431;28;20430;-69
2022/10/20 11:36:19;;;;;;;8.20;6.30;;;14.20;99.90;;;;;;4998960;28;20570;-71
2022/10/20 11:38:54;;;;;;;7.30;6.00;;;14.20;99.90;;;;;;4999371;28;20452;-74
2022/10/20 11:41:43;;;;;;;7.63;6.23;;;14.20;99.90;;;;;;4982300;28;20784;-73
2022/10/20 11:44:23;;;;;;;9.27;6.70;;;14.20;99.90;;;;;;5014747;28;20943;-73
2022/10/20 11:46:56;;;;;;;9.70;6.60;;;14.20;99.90;;;;;;5013674;28;20503;-73
2022/10/20 11:49:23;;;;;;;17.30;6.43;;;14.20;99.90;;;;;;4998664;28;20427;-73
2022/10/20 11:52:26;;;;;;;7.90;7.10;;;14.20;99.90;;;;;;4997794;28;21069;-73
2022/10/20 11:55:12;;;;;;;9.67;7.07;;;14.20;99.90;;;;;;5026547;28;20423;-73
2022/10/20 11:57:50;;;;;;;10.20;6.53;;;14.20;99.90;;;;;;5013637;28;20470;-73
2022/10/20 12:00:35;;;;;;;9.00;6.93;;;14.30;99.90;;;;;;5013844;28;20484;-72
2022/10/20 12:03:18;;;;;;;9.63;6.70;;;14.30;99.90;;;;;;5029003;28;20473;-73
2022/10/20 12:06:09;;;;;;;6.83;6.10;;;14.30;99.90;;;;;;5015457;28;20959;-72
2022/10/20 12:09:11;;;;;;;9.30;6.57;;;14.30;99.90;;;;;;5013509;28;20462;-72
2022/10/20 12:11:56;;;;;;;8.43;6.83;;;14.20;99.90;;;;;;4981602;28;20431;-73
2022/10/20 12:14:36;;;;;;;8.13;6.20;;;14.20;99.90;;;;;;5012954;28;20436;-73
2022/10/20 12:17:11;;;;;;;7.50;6.30;;;14.20;99.90;;;;;;5008099;28;20455;-72
2022/10/20 12:19:37;;;;;;;10.70;7.10;;;14.20;99.90;;;;;;4997686;28;20420;-73
2022/10/20 12:22:14;;;;;;;7.43;6.73;;;14.20;99.90;;;;;;4997779;28;20438;-73
2022/10/20 12:25:03;;;;;;;10.30;7.27;;;14.20;99.90;;;;;;4997320;28;20505;-73
2022/10/20 12:27:30;;;;;;;9.80;7.57;;;14.30;99.90;;;;;;4997043;28;20447;-72
2022/10/20 12:29:57;;;;;;;8.23;7.37;;;14.20;99.90;;;;;;4997734;28;20481;-73
2022/10/20 12:32:39;;;;;;;9.10;7.00;;;14.20;99.90;;;;;;5013252;28;20641;-73
2022/10/20 12:35:10;;;;;;;9.23;6.73;;;14.30;99.90;;;;;;4997676;28;20500;-74
2022/10/20 12:37:41;;;;;;;9.57;7.00;;;14.20;99.90;;;;;;4997729;28;20455;-74
2022/10/20 12:40:07;;;;;;;11.07;7.30;;;14.30;99.90;;;;;;5013672;28;20428;-73
2022/10/20 12:42:45;;;;;;;9.20;7.60;;;14.30;99.90;;;;;;5013795;28;20554;-74
2022/10/20 12:45:25;;;;;;;8.70;7.13;;;14.30;99.90;;;;;;5013801;28;20219;-74
2022/10/20 12:47:59;;;;;;;8.60;6.73;;;14.30;99.90;;;;;;4997383;28;20913;-74
2022/10/20 12:50:28;;;;;;;11.97;7.27;;;14.30;99.90;;;;;;5013989;28;20960;-74
2022/10/20 12:52:56;;;;;;;8.90;6.70;;;14.30;99.90;;;;;;5031191;28;20413;-74
2022/10/20 12:55:34;;;;;;;9.00;7.43;;;14.20;99.90;;;;;;5011845;28;20478;-74
2022/10/20 12:58:18;;;;;;;8.90;7.20;;;14.30;99.90;;;;;;5014320;28;20470;-74
2022/10/20 13:00:50;;;;;;;8.13;7.33;;;14.30;99.90;;;;;;4984366;28;20737;-74
2022/10/20 13:03:46;;;;;;;7.83;7.03;;;14.30;99.90;;;;;;5016932;28;20448;-74
2022/10/20 13:06:26;;;;;;;9.40;6.83;;;14.30;99.90;;;;;;5034588;28;20454;-74
2022/10/20 13:09:05;;;;;;;10.83;7.30;;;14.30;99.90;;;;;;5016627;28;20473;-74
2022/10/20 13:11:33;;;;;;;7.00;6.30;;;14.30;99.90;;;;;;5016943;28;20438;-74
2022/10/20 13:14:12;;;;;;;15.83;7.90;;;14.30;99.90;;;;;;5016465;28;20430;-74
2022/10/20 13:16:49;;;;;;;10.97;8.30;;;14.30;99.90;;;;;;5017103;28;20431;-74